createdAt,value
2022-08-19T00:00:16.803Z,99480.00
2022-08-19T00:02:50.456Z,99489.00
2022-08-19T00:05:20.447Z,99492.00
2022-08-19T00:07:49.639Z,99484.00
2022-08-19T00:10:20.073Z,99506.00
2022-08-19T00:12:50.512Z,99509.00
2022-08-19T00:15:23.970Z,99500.00
2022-08-19T00:17:52.506Z,99506.00
2022-08-19T00:20:23.108Z,99512.00
2022-08-19T00:22:52.972Z,99508.00
2022-08-19T00:25:30.219Z,99524.00
2022-08-19T00:28:00.966Z,99533.00
2022-08-19T00:30:29.876Z,99532.00
2022-08-19T00:32:58.691Z,99527.00
2022-08-19T00:35:28.274Z,99539.00
2022-08-19T00:37:57.155Z,99526.00
2022-08-19T00:40:26.111Z,99527.00
2022-08-19T00:42:55.118Z,99517.00
2022-08-19T00:45:29.166Z,99521.00
2022-08-19T00:47:57.790Z,99526.00
2022-08-19T00:50:26.729Z,99539.00
2022-08-19T00:52:55.563Z,99551.00
2022-08-19T00:55:26.523Z,99549.00
2022-08-19T00:57:58.197Z,99543.00
2022-08-19T01:00:30.435Z,99548.00
2022-08-19T01:02:59.139Z,99549.00
2022-08-19T01:05:31.142Z,99539.00
2022-08-19T01:08:02.532Z,99536.00
2022-08-19T01:10:36.622Z,99525.00
2022-08-19T01:13:06.991Z,99510.00
2022-08-19T01:15:45.525Z,99507.00
2022-08-19T01:18:17.367Z,99502.00
2022-08-19T01:20:46.668Z,99516.00
2022-08-19T01:23:18.044Z,99523.00
2022-08-19T01:25:50.854Z,99533.00
2022-08-19T01:28:34.000Z,99536.00
2022-08-19T01:31:26.743Z,99528.00
2022-08-19T01:33:58.859Z,99540.00
2022-08-19T01:36:30.986Z,99526.00
2022-08-19T01:39:04.135Z,99524.00
2022-08-19T01:41:32.859Z,99527.00
2022-08-19T01:44:18.392Z,99519.00
2022-08-19T01:46:49.253Z,99527.00
2022-08-19T01:49:19.165Z,99544.00
2022-08-19T01:51:48.625Z,99540.00
2022-08-19T01:54:23.411Z,99525.00
2022-08-19T01:57:00.443Z,99524.00
2022-08-19T01:59:29.881Z,99525.00
2022-08-19T02:01:58.506Z,99515.00
2022-08-19T02:04:28.181Z,99520.00
2022-08-19T02:06:56.768Z,99519.00
2022-08-19T02:09:26.848Z,99520.00
2022-08-19T02:11:55.476Z,99517.00
2022-08-19T02:14:24.103Z,99514.00
2022-08-19T02:16:52.746Z,99512.00
2022-08-19T02:19:21.464Z,99519.00
2022-08-19T02:21:50.016Z,99526.00
2022-08-19T02:24:18.726Z,99525.00
2022-08-19T02:26:48.684Z,99526.00
2022-08-19T02:29:17.503Z,99518.00
2022-08-19T02:31:46.327Z,99512.00
2022-08-19T02:34:15.255Z,99496.00
2022-08-19T02:36:44.153Z,99490.00
2022-08-19T02:39:19.561Z,99505.00
2022-08-19T02:41:50.431Z,99510.00
2022-08-19T02:44:29.272Z,99523.00
2022-08-19T02:47:00.352Z,99521.00
2022-08-19T02:49:28.975Z,99519.00
2022-08-19T02:51:57.553Z,99524.00
2022-08-19T02:54:26.610Z,99530.00
2022-08-19T02:56:56.663Z,99533.00
2022-08-19T02:59:27.457Z,99537.00
2022-08-19T03:01:56.127Z,99548.00
2022-08-19T03:04:25.339Z,99542.00
2022-08-19T03:06:57.543Z,99542.00
2022-08-19T03:09:28.128Z,99537.00
2022-08-19T03:11:58.742Z,99550.00
2022-08-19T03:14:28.871Z,99545.00
2022-08-19T03:16:57.702Z,99533.00
2022-08-19T03:19:26.361Z,99536.00
2022-08-19T03:21:56.407Z,99527.00
2022-08-19T03:24:25.652Z,99537.00
2022-08-19T03:26:59.770Z,99529.00
2022-08-19T03:29:32.597Z,99528.00
2022-08-19T03:32:04.642Z,99538.00
2022-08-19T03:34:35.604Z,99536.00
2022-08-19T03:37:08.765Z,99524.00
2022-08-19T03:39:39.535Z,99530.00
2022-08-19T03:42:32.110Z,99512.00
2022-08-19T03:44:59.159Z,99516.00
2022-08-19T03:47:27.687Z,99527.00
2022-08-19T03:49:56.462Z,99529.00
2022-08-19T03:52:25.002Z,99537.00
2022-08-19T03:54:53.581Z,99538.00
2022-08-19T03:57:32.141Z,99520.00
2022-08-19T04:00:04.052Z,99538.00
2022-08-19T04:02:58.880Z,99534.00
2022-08-19T04:05:30.503Z,99535.00
2022-08-19T04:08:00.276Z,99547.00
2022-08-19T04:10:30.129Z,99543.00
2022-08-19T04:13:00.158Z,99548.00
2022-08-19T04:15:29.980Z,99543.00
2022-08-19T04:17:58.959Z,99553.00
2022-08-19T04:20:27.589Z,99547.00
2022-08-19T04:22:56.047Z,99555.00
2022-08-19T04:25:25.211Z,99537.00
2022-08-19T04:27:53.748Z,99538.00
2022-08-19T04:30:26.158Z,99532.00
2022-08-19T04:32:54.996Z,99540.00
2022-08-19T04:35:25.050Z,99538.00
2022-08-19T04:37:54.533Z,99548.00
2022-08-19T04:40:37.092Z,99543.00
2022-08-19T04:43:05.824Z,99542.00
2022-08-19T04:45:39.454Z,99546.00
2022-08-19T04:48:26.449Z,99549.00
2022-08-19T04:51:01.376Z,99561.00
2022-08-19T04:53:37.660Z,99554.00
2022-08-19T04:56:10.306Z,99560.00
2022-08-19T04:58:39.910Z,99563.00
2022-08-19T05:01:11.352Z,99563.00
2022-08-19T05:03:40.931Z,99562.00
2022-08-19T05:06:11.639Z,99557.00
2022-08-19T05:08:43.064Z,99547.00
2022-08-19T05:11:14.556Z,99548.00
2022-08-19T05:13:44.199Z,99561.00
2022-08-19T05:16:15.645Z,99571.00
2022-08-19T05:19:01.911Z,99569.00
2022-08-19T05:21:49.299Z,99583.00
2022-08-19T05:24:18.862Z,99586.00
2022-08-19T05:26:49.888Z,99586.00
2022-08-19T05:29:20.422Z,99591.00
2022-08-19T05:31:54.202Z,99592.00
2022-08-19T05:34:26.999Z,99587.00
2022-08-19T05:36:58.017Z,99590.00
2022-08-19T05:39:33.254Z,99592.00
2022-08-19T05:42:04.602Z,99587.00
2022-08-19T05:44:36.552Z,99590.00
2022-08-19T05:47:09.385Z,99597.00
2022-08-19T05:49:38.905Z,99601.00
2022-08-19T05:52:09.221Z,99610.00
2022-08-19T05:54:41.099Z,99614.00
2022-08-19T05:57:10.508Z,99630.00
2022-08-19T05:59:42.985Z,99635.00
2022-08-19T06:02:14.151Z,99642.00
2022-08-19T06:04:43.859Z,99644.00
2022-08-19T06:07:13.161Z,99650.00
2022-08-19T06:09:43.783Z,99647.00
2022-08-19T06:12:29.857Z,99654.00
2022-08-19T06:15:01.454Z,99657.00
2022-08-19T06:17:35.667Z,99665.00
2022-08-19T06:20:05.060Z,99675.00
2022-08-19T06:22:33.693Z,99680.00
2022-08-19T06:25:02.628Z,99683.00
2022-08-19T06:27:34.239Z,99700.00
2022-08-19T06:30:03.627Z,99708.00
2022-08-19T06:32:34.974Z,99714.00
2022-08-19T06:35:03.852Z,99715.00
2022-08-19T06:37:32.500Z,99719.00
2022-08-19T06:40:01.335Z,99727.00
2022-08-19T06:42:31.711Z,99727.00
2022-08-19T06:45:00.540Z,99722.00
2022-08-19T06:47:29.656Z,99729.00
2022-08-19T06:50:03.780Z,99735.00
2022-08-19T06:52:36.501Z,99731.00
2022-08-19T06:55:07.141Z,99732.00
2022-08-19T06:57:36.248Z,99745.00
2022-08-19T07:00:07.183Z,99739.00
2022-08-19T07:02:39.043Z,99737.00
2022-08-19T07:05:11.831Z,99743.00
2022-08-19T07:07:44.169Z,99754.00
2022-08-19T07:10:20.791Z,99750.00
2022-08-19T07:12:51.368Z,99755.00
2022-08-19T07:15:22.573Z,99755.00
2022-08-19T07:17:52.775Z,99757.00
2022-08-19T07:20:28.513Z,99755.00
2022-08-19T07:22:57.798Z,99754.00
2022-08-19T07:25:33.423Z,99761.00
2022-08-19T07:28:02.532Z,99755.00
2022-08-19T07:30:34.322Z,99749.00
2022-08-19T07:33:03.753Z,99754.00
2022-08-19T07:35:34.643Z,99750.00
2022-08-19T07:38:04.695Z,99737.00
2022-08-19T07:40:35.076Z,99738.00
2022-08-19T07:43:04.396Z,99744.00
2022-08-19T07:45:33.969Z,99751.00
2022-08-19T07:48:03.177Z,99748.00
2022-08-19T07:50:34.515Z,99755.00
2022-08-19T07:53:03.041Z,99752.00
2022-08-19T07:55:41.603Z,99759.00
2022-08-19T07:58:12.603Z,99751.00
2022-08-19T08:00:41.827Z,99755.00
2022-08-19T08:03:13.890Z,99752.00
2022-08-19T08:06:01.395Z,99766.00
2022-08-19T08:08:49.825Z,99768.00
2022-08-19T08:11:23.993Z,99777.00
2022-08-19T08:14:01.247Z,99776.00
2022-08-19T08:16:33.546Z,99779.00
2022-08-19T08:19:03.827Z,99772.00
2022-08-19T08:21:48.688Z,99770.00
2022-08-19T08:24:18.385Z,99764.00
2022-08-19T08:26:52.180Z,99769.00
2022-08-19T08:29:26.865Z,99769.00
2022-08-19T08:32:14.191Z,99763.00
2022-08-19T08:34:43.900Z,99762.00
2022-08-19T08:37:16.187Z,99764.00
2022-08-19T08:39:45.331Z,99780.00
2022-08-19T08:42:24.336Z,99789.00
2022-08-19T08:45:02.606Z,99789.00
2022-08-19T08:47:38.452Z,99786.00
2022-08-19T08:50:16.136Z,99789.00
2022-08-19T08:52:49.344Z,99793.00
2022-08-19T08:55:21.924Z,99797.00
2022-08-19T08:57:56.397Z,99796.00
2022-08-19T09:00:31.826Z,99794.00
2022-08-19T09:03:02.755Z,99791.00
2022-08-19T09:05:48.581Z,99797.00
2022-08-19T09:08:30.375Z,99810.00
2022-08-19T09:11:00.047Z,99819.00
2022-08-19T09:13:37.638Z,99824.00
2022-08-19T09:16:13.006Z,99810.00
2022-08-19T09:18:44.952Z,99808.00
2022-08-19T09:21:15.667Z,99811.00
2022-08-19T09:23:45.941Z,99811.00
2022-08-19T09:26:23.258Z,99806.00
2022-08-19T09:28:59.501Z,99801.00
2022-08-19T09:31:30.927Z,99808.00
2022-08-19T09:34:00.463Z,99803.00
2022-08-19T09:36:34.749Z,99805.00
2022-08-19T09:39:16.015Z,99794.00
2022-08-19T09:41:47.524Z,99794.00
2022-08-19T09:44:19.200Z,99790.00
2022-08-19T09:46:50.155Z,99787.00
2022-08-19T09:49:21.352Z,99776.00
2022-08-19T09:51:55.174Z,99778.00
2022-08-19T09:54:26.545Z,99769.00
2022-08-19T09:56:56.793Z,99762.00
2022-08-19T09:59:26.583Z,99763.00
2022-08-19T10:01:55.871Z,99765.00
2022-08-19T10:04:46.531Z,99764.00
2022-08-19T10:07:15.146Z,99777.00
2022-08-19T10:09:45.312Z,99785.00
2022-08-19T10:12:17.875Z,99779.00
2022-08-19T10:14:49.337Z,99779.00
2022-08-19T10:17:20.740Z,99780.00
2022-08-19T10:19:55.682Z,99786.00
2022-08-19T10:22:27.499Z,99788.00
2022-08-19T10:24:58.620Z,99787.00
2022-08-19T10:27:28.346Z,99800.00
2022-08-19T10:30:00.742Z,99794.00
2022-08-19T10:32:34.017Z,99793.00
2022-08-19T10:35:06.018Z,99794.00
2022-08-19T10:37:35.384Z,99792.00
2022-08-19T10:40:06.973Z,99806.00
2022-08-19T10:42:35.839Z,99817.00
2022-08-19T10:45:07.172Z,99813.00
2022-08-19T10:47:41.842Z,99819.00
2022-08-19T10:50:30.149Z,99827.00
2022-08-19T10:52:58.798Z,99826.00
2022-08-19T10:55:46.441Z,99826.00
2022-08-19T10:58:19.286Z,99821.00
2022-08-19T11:00:55.715Z,99828.00
2022-08-19T11:03:24.832Z,99837.00
2022-08-19T11:06:01.541Z,99832.00
2022-08-19T11:08:32.098Z,99840.00
2022-08-19T11:11:04.667Z,99851.00
2022-08-19T11:13:37.026Z,99843.00
2022-08-19T11:16:09.557Z,99846.00
2022-08-19T11:18:40.310Z,99854.00
2022-08-19T11:21:15.787Z,99867.00
2022-08-19T11:23:45.350Z,99864.00
2022-08-19T11:26:18.378Z,99864.00
2022-08-19T11:28:48.314Z,99866.00
2022-08-19T11:31:22.566Z,99871.00
2022-08-19T11:33:55.266Z,99870.00
2022-08-19T11:36:25.443Z,99866.00
2022-08-19T11:38:54.759Z,99864.00
2022-08-19T11:41:26.739Z,99858.00
2022-08-19T11:43:57.822Z,99861.00
2022-08-19T11:46:30.453Z,99875.00
2022-08-19T11:49:00.107Z,99889.00
2022-08-19T11:51:29.876Z,99878.00
2022-08-19T11:54:01.274Z,99871.00
2022-08-19T11:56:31.660Z,99864.00
2022-08-19T11:59:02.702Z,99864.00
2022-08-19T12:01:32.430Z,99865.00
2022-08-19T12:04:03.078Z,99860.00
2022-08-19T12:06:35.269Z,99859.00
2022-08-19T12:09:07.174Z,99857.00
2022-08-19T12:11:39.184Z,99857.00
2022-08-19T12:14:08.700Z,99858.00
2022-08-19T12:16:48.621Z,99861.00
2022-08-19T12:19:22.538Z,99859.00
2022-08-19T12:21:54.541Z,99864.00
2022-08-19T12:24:24.476Z,99863.00
2022-08-19T12:26:56.537Z,99871.00
2022-08-19T12:29:30.766Z,99877.00
2022-08-19T12:32:08.586Z,99893.00
2022-08-19T12:34:40.716Z,99893.00
2022-08-19T12:37:10.136Z,99893.00
2022-08-19T12:39:41.084Z,99893.00
2022-08-19T12:42:13.282Z,99903.00
2022-08-19T12:44:43.682Z,99880.00
2022-08-19T12:47:15.968Z,99887.00
2022-08-19T12:49:54.182Z,99892.00
2022-08-19T12:52:26.730Z,99891.00
2022-08-19T12:54:57.170Z,99888.00
2022-08-19T12:57:33.053Z,99895.00
2022-08-19T13:00:05.855Z,99896.00
2022-08-19T13:02:39.059Z,99898.00
2022-08-19T13:05:11.448Z,99886.00
2022-08-19T13:07:41.661Z,99885.00
2022-08-19T13:10:13.484Z,99889.00
2022-08-19T13:12:45.097Z,99889.00
2022-08-19T13:15:15.255Z,99897.00
2022-08-19T13:17:44.521Z,99890.00
2022-08-19T13:20:14.491Z,99883.00
2022-08-19T13:22:43.366Z,99885.00
2022-08-19T13:25:12.783Z,99885.00
2022-08-19T13:27:44.765Z,99875.00
2022-08-19T13:30:33.020Z,99879.00
2022-08-19T13:33:16.446Z,99868.00
2022-08-19T13:35:49.044Z,99875.00
2022-08-19T13:38:21.484Z,99882.00
2022-08-19T13:40:53.074Z,99881.00
2022-08-19T13:43:25.738Z,99876.00
2022-08-19T13:45:57.707Z,99873.00
2022-08-19T13:48:28.700Z,99871.00
2022-08-19T13:50:58.061Z,99875.00
2022-08-19T13:53:26.845Z,99889.00
2022-08-19T13:55:55.745Z,99887.00
2022-08-19T13:58:26.656Z,99875.00
2022-08-19T14:00:55.536Z,99878.00
2022-08-19T14:03:25.749Z,99876.00
2022-08-19T14:05:54.573Z,99871.00
2022-08-19T14:08:26.741Z,99861.00
2022-08-19T14:10:56.342Z,99870.00
2022-08-19T14:13:27.147Z,99868.00
2022-08-19T14:15:55.732Z,99870.00
2022-08-19T14:18:28.556Z,99875.00
2022-08-19T14:20:58.909Z,99878.00
2022-08-19T14:23:27.725Z,99891.00
2022-08-19T14:26:04.761Z,99890.00
2022-08-19T14:28:35.192Z,99899.00
2022-08-19T14:31:03.954Z,99885.00
2022-08-19T14:33:33.217Z,99879.00
2022-08-19T14:36:02.507Z,99884.00
2022-08-19T14:38:32.310Z,99888.00
2022-08-19T14:41:17.897Z,99891.00
2022-08-19T14:43:50.975Z,99890.00
2022-08-19T14:46:22.433Z,99898.00
2022-08-19T14:48:52.732Z,99895.00
2022-08-19T14:51:22.674Z,99893.00
2022-08-19T14:53:52.377Z,99900.00
2022-08-19T14:56:23.405Z,99897.00
2022-08-19T14:58:55.577Z,99900.00
2022-08-19T15:01:25.781Z,99899.00
2022-08-19T15:03:54.794Z,99890.00
2022-08-19T15:06:23.926Z,99883.00
2022-08-19T15:08:53.999Z,99891.00
2022-08-19T15:11:28.748Z,99898.00
2022-08-19T15:14:00.660Z,99892.00
2022-08-19T15:16:30.470Z,99880.00
2022-08-19T15:19:01.060Z,99883.00
2022-08-19T15:21:31.415Z,99871.00
2022-08-19T15:24:01.494Z,99870.00
2022-08-19T15:26:33.208Z,99878.00
2022-08-19T15:29:05.980Z,99881.00
2022-08-19T15:31:38.315Z,99871.00
2022-08-19T15:34:08.200Z,99873.00
2022-08-19T15:36:37.515Z,99880.00
2022-08-19T15:39:07.501Z,99875.00
2022-08-19T15:41:37.088Z,99886.00
2022-08-19T15:44:10.577Z,99891.00
2022-08-19T15:46:41.148Z,99898.00
2022-08-19T15:49:11.335Z,99891.00
2022-08-19T15:51:44.020Z,99882.00
2022-08-19T15:54:15.289Z,99888.00
2022-08-19T15:57:09.191Z,99874.00
2022-08-19T16:00:00.093Z,99879.00
2022-08-19T16:02:53.465Z,99865.00
2022-08-19T16:05:42.427Z,99849.00
2022-08-19T16:08:12.339Z,99855.00
2022-08-19T16:10:42.421Z,99852.00
2022-08-19T16:13:11.862Z,99855.00
2022-08-19T16:15:44.001Z,99851.00
2022-08-19T16:18:17.676Z,99856.00
2022-08-19T16:20:46.701Z,99857.00
2022-08-19T16:23:16.846Z,99859.00
2022-08-19T16:25:46.063Z,99864.00
2022-08-19T16:28:15.676Z,99875.00
2022-08-19T16:30:48.672Z,99878.00
2022-08-19T16:33:23.105Z,99875.00
2022-08-19T16:35:59.231Z,99871.00
2022-08-19T16:38:33.744Z,99872.00
2022-08-19T16:41:02.860Z,99879.00
2022-08-19T16:43:32.337Z,99880.00
2022-08-19T16:46:04.251Z,99885.00
2022-08-19T16:48:33.349Z,99880.00
2022-08-19T16:51:09.713Z,99882.00
2022-08-19T16:53:41.530Z,99876.00
2022-08-19T16:56:11.619Z,99868.00
2022-08-19T16:58:42.145Z,99867.00
2022-08-19T17:01:17.283Z,99860.00
2022-08-19T17:03:48.949Z,99860.00
2022-08-19T17:06:31.491Z,99854.00
2022-08-19T17:09:12.207Z,99853.00
2022-08-19T17:12:36.025Z,99842.00
2022-08-19T17:16:06.132Z,99859.00
2022-08-19T17:19:14.155Z,99858.00
2022-08-19T17:22:09.001Z,99861.00
2022-08-19T17:25:37.982Z,99861.00
2022-08-19T17:28:38.427Z,99870.00
2022-08-19T17:31:55.678Z,99868.00
2022-08-19T17:45:05.653Z,99863.00
2022-08-19T17:48:09.244Z,99859.00
2022-08-19T17:51:15.714Z,99860.00
2022-08-19T17:57:22.297Z,99847.00
2022-08-19T18:00:21.070Z,99861.00
2022-08-19T18:03:09.867Z,99882.00
2022-08-19T18:06:00.349Z,99892.00
2022-08-19T18:08:30.863Z,99892.00
2022-08-19T18:10:59.949Z,99891.00
2022-08-19T18:13:38.051Z,99895.00
2022-08-19T18:16:12.467Z,99915.00
2022-08-19T18:18:44.806Z,99926.00
2022-08-19T18:21:14.141Z,99917.00
2022-08-19T18:23:45.439Z,99931.00
2022-08-19T18:26:14.916Z,99949.00
2022-08-19T18:28:49.951Z,99957.00
2022-08-19T18:31:21.849Z,99968.00
2022-08-19T18:33:52.515Z,99986.00
2022-08-19T18:36:52.540Z,99981.00
2022-08-19T18:40:09.747Z,99982.00
2022-08-19T18:43:00.470Z,99988.00
2022-08-19T18:45:48.176Z,99988.00
2022-08-19T18:48:34.597Z,99979.00
2022-08-19T18:51:04.150Z,99967.00
2022-08-19T18:53:36.765Z,99959.00
2022-08-19T18:56:09.390Z,99956.00
2022-08-19T18:58:43.765Z,99964.00
2022-08-19T19:01:18.231Z,99974.00
2022-08-19T19:03:58.363Z,99973.00
2022-08-19T19:06:43.238Z,99968.00
2022-08-19T19:09:22.740Z,99960.00
2022-08-19T19:12:00.766Z,99962.00
2022-08-19T19:14:49.148Z,99958.00
2022-08-19T19:18:11.948Z,99953.00
2022-08-19T19:21:09.718Z,99939.00
2022-08-19T19:24:12.710Z,99942.00
2022-08-19T19:26:44.590Z,99948.00
2022-08-19T19:29:14.273Z,99959.00
2022-08-19T19:31:44.196Z,99947.00
2022-08-19T19:34:29.504Z,99945.00
2022-08-19T19:37:01.509Z,99941.00
2022-08-19T19:39:46.704Z,99934.00
2022-08-19T19:42:19.937Z,99943.00
2022-08-19T19:44:54.587Z,99936.00
2022-08-19T19:47:24.436Z,99933.00
2022-08-19T19:52:46.771Z,99947.00
2022-08-19T19:55:17.984Z,99952.00
2022-08-19T19:57:48.925Z,99959.00
2022-08-19T20:00:19.478Z,99964.00
2022-08-19T20:02:58.581Z,99954.00
2022-08-19T20:05:27.718Z,99925.00
2022-08-19T20:08:22.120Z,99924.00
2022-08-19T20:10:51.284Z,99942.00
2022-08-19T20:13:20.005Z,99943.00
2022-08-19T20:15:51.480Z,99951.00
2022-08-19T20:18:22.253Z,99953.00
2022-08-19T20:20:52.801Z,99959.00
2022-08-19T20:23:27.165Z,99956.00
2022-08-19T20:25:57.062Z,99954.00
2022-08-19T20:28:25.863Z,99952.00
2022-08-19T20:30:58.999Z,99962.00
2022-08-19T20:33:33.674Z,99973.00
2022-08-19T20:36:05.102Z,99977.00
2022-08-19T20:38:35.281Z,99981.00
2022-08-19T20:41:07.805Z,99979.00
2022-08-19T20:43:36.448Z,99982.00
2022-08-19T20:46:08.107Z,99980.00
2022-08-19T20:48:48.882Z,99970.00
2022-08-19T20:51:32.264Z,99970.00
2022-08-19T20:54:02.385Z,99968.00
2022-08-19T20:56:31.051Z,99984.00
2022-08-19T20:59:04.362Z,99981.00
2022-08-19T21:01:51.666Z,99978.00
2022-08-19T21:04:21.516Z,99981.00
2022-08-19T21:06:50.624Z,99986.00
2022-08-19T21:09:20.902Z,99988.00
2022-08-19T21:11:49.845Z,99986.00
2022-08-19T21:14:19.131Z,99974.00
2022-08-19T21:16:52.543Z,99987.00
2022-08-19T21:19:25.536Z,99983.00
2022-08-19T21:21:57.003Z,99977.00
2022-08-19T21:24:31.759Z,99978.00
2022-08-19T21:27:04.201Z,99982.00
2022-08-19T21:29:39.045Z,99982.00
2022-08-19T21:32:11.151Z,99971.00
2022-08-19T21:34:46.871Z,99978.00
2022-08-19T21:37:25.513Z,99968.00
2022-08-19T21:39:56.525Z,99979.00
2022-08-19T21:42:28.584Z,99986.00
2022-08-19T21:44:57.258Z,99989.00
2022-08-19T21:47:26.117Z,99987.00
2022-08-19T21:49:54.880Z,99984.00
2022-08-19T21:52:29.636Z,99979.00
2022-08-19T21:55:02.407Z,99969.00
2022-08-19T21:57:30.936Z,99966.00
2022-08-19T21:59:59.777Z,99970.00
2022-08-19T22:02:28.665Z,99969.00
2022-08-19T22:04:57.501Z,99965.00
2022-08-19T22:07:26.327Z,99959.00
2022-08-19T22:10:01.003Z,99948.00
2022-08-19T22:12:37.677Z,99948.00
2022-08-19T22:15:09.054Z,99946.00
2022-08-19T22:17:47.259Z,99950.00
2022-08-19T22:20:18.794Z,99957.00
2022-08-19T22:22:50.186Z,99961.00
2022-08-19T22:25:31.298Z,99963.00
2022-08-19T22:28:01.684Z,99962.00
2022-08-19T22:30:33.275Z,99977.00
2022-08-19T22:33:05.466Z,99967.00
2022-08-19T22:35:37.703Z,99968.00
2022-08-19T22:38:07.900Z,99968.00
2022-08-19T22:40:40.826Z,99973.00
2022-08-19T22:43:14.420Z,99971.00
2022-08-19T22:45:43.733Z,99960.00
2022-08-19T22:48:15.017Z,99957.00
2022-08-19T22:51:05.895Z,99962.00
2022-08-19T22:53:34.970Z,99971.00
2022-08-19T22:56:06.298Z,99968.00
2022-08-19T22:58:35.137Z,99969.00
2022-08-19T23:01:04.349Z,99970.00
2022-08-19T23:03:34.525Z,99979.00
2022-08-19T23:06:03.244Z,99987.00
2022-08-19T23:08:37.318Z,99982.00
2022-08-19T23:11:07.914Z,99972.00
2022-08-19T23:13:38.912Z,99980.00
2022-08-19T23:16:10.928Z,99973.00
2022-08-19T23:18:39.613Z,99968.00
2022-08-19T23:21:09.612Z,99970.00
2022-08-19T23:23:41.458Z,99975.00
2022-08-19T23:26:11.848Z,99975.00
2022-08-19T23:28:58.111Z,99977.00
2022-08-19T23:31:28.247Z,99973.00
2022-08-19T23:33:57.112Z,99976.00
2022-08-19T23:36:28.473Z,99971.00
2022-08-19T23:38:59.585Z,99967.00
2022-08-19T23:41:30.937Z,99964.00
2022-08-19T23:44:00.366Z,99967.00
2022-08-19T23:46:29.068Z,99963.00
2022-08-19T23:48:59.738Z,99955.00
2022-08-19T23:51:28.329Z,99955.00
2022-08-19T23:53:56.913Z,99950.00
2022-08-19T23:56:25.531Z,99946.00
2022-08-19T23:58:55.549Z,99957.00
